| time (UTC) | temp C | wind direction | speed KPH | gust KPH | rain 1hr cm | rain 24hr cm | rain mn cm | humidity % | barometer mb |
| 20260503194558 | 27 | 326 | 4.8 | 12.9 | 0.00 | 0.00 | 0.00 | 50 | 1008.6 |
| 20260503193055 | 26 | 350 | 0.0 | 11.3 | 0.00 | 0.00 | 0.00 | 52 | 1008.8 |
| 20260503191601 | 26 | 281 | 0.0 | 9.7 | 0.00 | 0.00 | 0.00 | 53 | 1008.9 |
| 20260503190047 | 25 | 342 | 3.2 | 9.7 | 0.00 | 0.00 | 0.00 | 53 | 1009.1 |
| 20260503184603 | 25 | 280 | 0.0 | 8.0 | 0.00 | 0.00 | 0.00 | 54 | 1009.3 |
| 20260503183045 | 23 | 330 | 1.6 | 9.7 | 0.00 | 0.00 | 0.00 | 56 | 1009.5 |
| 20260503181533 | 22 | 294 | 4.8 | 9.7 | 0.00 | 0.00 | 0.00 | 59 | 1009.6 |
| 20260503180033 | 22 | 32 | 4.8 | 11.3 | 0.00 | 0.00 | 0.00 | 62 | 1009.9 |
| 20260503174536 | 21 | 309 | 1.6 | 9.7 | 0.00 | 0.00 | 0.00 | 66 | 1009.9 |
| 20260503173024 | 20 | 333 | 3.2 | 8.0 | 0.00 | 0.00 | 0.00 | 67 | 1010.1 |
| 20260503171525 | 20 | 35 | 1.6 | 6.4 | 0.00 | 0.00 | 0.00 | 69 | 1010.3 |
| 20260503081553 | 13 | 287 | 0.0 | 0.0 | 0.00 | 0.05 | 0.00 | 90 | 1011.0 |
| 20260503071557 | 14 | 288 | 0.0 | 0.0 | 0.00 | 0.05 | 0.00 | 88 | 1011.1 |
| 20260503054535 | 16 | 156 | 0.0 | 0.0 | 0.00 | 0.05 | 0.00 | 83 | 1011.0 |
| 20260503053059 | 16 | 308 | 0.0 | 0.0 | 0.00 | 0.05 | 0.00 | 81 | 1010.8 |
| 20260503051558 | 16 | 308 | 0.0 | 0.0 | 0.00 | 0.05 | 0.00 | 81 | 1010.8 |
| 20260503044556 | 16 | 103 | 0.0 | 0.0 | 0.00 | 0.05 | 0.00 | 80 | 1011.2 |
| 20260503043058 | 17 | 103 | 0.0 | 1.6 | 0.00 | 0.05 | 0.00 | 79 | 1011.4 |
| 20260503041554 | 17 | 75 | 0.0 | 1.6 | 0.00 | 0.05 | 0.00 | 78 | 1011.2 |
| 20260503040054 | 17 | 54 | 0.0 | 0.0 | 0.00 | 0.05 | 0.00 | 78 | 1011.1 |
| 20260503034554 | 17 | 103 | 0.0 | 1.6 | 0.00 | 0.05 | 0.00 | 77 | 1011.1 |
| 20260503033058 | 18 | 139 | 0.0 | 0.0 | 0.00 | 0.05 | 0.00 | 74 | 1010.9 |
| 20260503031551 | 18 | 139 | 0.0 | 0.0 | 0.00 | 0.05 | 0.00 | 73 | 1011.0 |
| 20260503030049 | 18 | 239 | 0.0 | 8.0 | 0.00 | 0.05 | 0.00 | 73 | 1010.7 |
| 20260503024551 | 18 | 281 | 3.2 | 14.5 | 0.00 | 0.05 | 0.00 | 73 | 1010.9 |
| 20260503023049 | 18 | 215 | 4.8 | 17.7 | 0.00 | 0.05 | 0.00 | 71 | 1010.8 |
| 20260503021550 | 21 | 214 | 3.2 | 19.3 | 0.00 | 0.05 | 0.00 | 66 | 1010.6 |
| 20260503020046 | 22 | 179 | 0.0 | 8.0 | 0.00 | 0.05 | 0.00 | 63 | 1010.1 |
| 20260503014556 | 22 | 159 | 0.0 | 3.2 | 0.00 | 0.05 | 0.00 | 60 | 1009.8 |
| 20260503013045 | 22 | 140 | 0.0 | 3.2 | 0.00 | 0.05 | 0.00 | 60 | 1009.8 |
| 20260503011552 | 22 | 41 | 0.0 | 3.2 | 0.00 | 0.05 | 0.00 | 61 | 1009.7 |
| 20260503010037 | 22 | 269 | 0.0 | 4.8 | 0.00 | 0.05 | 0.00 | 61 | 1009.7 |
| 20260503004538 | 22 | 71 | 0.0 | 3.2 | 0.00 | 0.05 | 0.00 | 61 | 1009.8 |
| 20260503003039 | 22 | 278 | 0.0 | 4.8 | 0.00 | 0.05 | 0.00 | 61 | 1009.8 |
| 20260503001533 | 21 | 303 | 3.2 | 9.7 | 0.00 | 0.05 | 0.00 | 61 | 1009.8 |
| 20260503000028 | 21 | 326 | 0.0 | 6.4 | 0.00 | 0.05 | 0.00 | 61 | 1009.9 |
| 20260502234532 | 21 | 290 | 1.6 | 12.9 | 0.00 | 0.05 | 0.00 | 61 | 1009.9 |
| 20260502233024 | 21 | 256 | 3.2 | 9.7 | 0.00 | 0.05 | 0.00 | 61 | 1010.0 |
| 20260502231526 | 21 | 286 | 1.6 | 9.7 | 0.00 | 0.05 | 0.00 | 62 | 1010.2 |
| 20260502230016 | 21 | 300 | 3.2 | 9.7 | 0.00 | 0.05 | 0.00 | 64 | 1010.4 |
| 20260502224514 | 20 | 285 | 3.2 | 8.0 | 0.00 | 0.05 | 0.00 | 64 | 1010.6 |
| 20260502223012 | 19 | 296 | 3.2 | 16.1 | 0.00 | 0.05 | 0.00 | 65 | 1010.9 |
| 20260502221511 | 20 | 301 | 4.8 | 12.9 | 0.00 | 0.05 | 0.00 | 64 | 1011.2 |
| 20260502220108 | 20 | 34 | 0.0 | 12.9 | 0.00 | 0.05 | 0.00 | 64 | 1011.4 |
| 20260502214538 | 19 | 331 | 0.0 | 6.4 | 0.00 | 0.05 | 0.00 | 66 | 1011.5 |
| 20260502213042 | 18 | 90 | 0.0 | 9.7 | 0.00 | 0.05 | 0.00 | 68 | 1011.8 |
| 20260502211531 | 18 | 284 | 4.8 | 9.7 | 0.00 | 0.05 | 0.00 | 68 | 1012.0 |
| 20260502210031 | 17 | 271 | 4.8 | 9.7 | 0.00 | 0.05 | 0.00 | 69 | 1012.1 |
| 20260502210026 | 17 | 261 | 4.8 | 9.7 | 0.00 | 0.05 | 0.00 | 69 | 1012.1 |
| 20260502204523 | 18 | 241 | 0.0 | 9.7 | 0.00 | 0.05 | 0.00 | 68 | 1012.5 |
| 20260502203021 | 17 | 295 | 0.0 | 9.7 | 0.00 | 0.05 | 0.00 | 70 | 1012.7 |
| 20260502201559 | 16 | 328 | 1.6 | 11.3 | 0.00 | 0.05 | 0.00 | 72 | 1012.7 |
| 20260502200046 | 16 | 353 | 3.2 | 9.7 | 0.00 | 0.05 | 0.00 | 75 | 1013.0 |